sensor_id;sensor_type;location;lat;lon;timestamp;pressure;altitude;pressure_sealevel;temperature;humidity
10464;BME280;5279;42.048;24.638;2023-01-15T00:01:20;98000.84;;;6.97;100.00
10464;BME280;5279;42.048;24.638;2023-01-15T00:03:50;97996.78;;;6.93;100.00
10464;BME280;5279;42.048;24.638;2023-01-15T00:06:19;97987.41;;;6.89;100.00
10464;BME280;5279;42.048;24.638;2023-01-15T00:08:48;98007.91;;;6.73;100.00
10464;BME280;5279;42.048;24.638;2023-01-15T00:11:16;97997.84;;;6.54;100.00
10464;BME280;5279;42.048;24.638;2023-01-15T00:13:44;98003.94;;;6.67;100.00
10464;BME280;5279;42.048;24.638;2023-01-15T00:16:13;97999.28;;;6.71;100.00
10464;BME280;5279;42.048;24.638;2023-01-15T00:18:41;97996.88;;;6.68;100.00
10464;BME280;5279;42.048;24.638;2023-01-15T00:21:11;98000.13;;;6.71;100.00
10464;BME280;5279;42.048;24.638;2023-01-15T00:23:38;97994.47;;;6.65;100.00
10464;BME280;5279;42.048;24.638;2023-01-15T00:26:27;97996.25;;;6.64;100.00
10464;BME280;5279;42.048;24.638;2023-01-15T00:29:12;98000.63;;;6.52;100.00
10464;BME280;5279;42.048;24.638;2023-01-15T00:31:39;97986.31;;;6.44;100.00
10464;BME280;5279;42.048;24.638;2023-01-15T00:34:07;98003.47;;;6.49;100.00
10464;BME280;5279;42.048;24.638;2023-01-15T00:36:36;97990.97;;;6.40;100.00
10464;BME280;5279;42.048;24.638;2023-01-15T00:39:04;97998.94;;;6.51;100.00
10464;BME280;5279;42.048;24.638;2023-01-15T00:41:32;97992.22;;;6.47;100.00
10464;BME280;5279;42.048;24.638;2023-01-15T00:44:00;97996.59;;;6.59;100.00
10464;BME280;5279;42.048;24.638;2023-01-15T00:46:28;97987.72;;;6.60;100.00
10464;BME280;5279;42.048;24.638;2023-01-15T00:48:55;97983.44;;;6.59;100.00
10464;BME280;5279;42.048;24.638;2023-01-15T00:51:22;97994.47;;;6.65;100.00
10464;BME280;5279;42.048;24.638;2023-01-15T00:53:52;97999.91;;;6.74;100.00
10464;BME280;5279;42.048;24.638;2023-01-15T00:56:19;97990.22;;;6.75;100.00
10464;BME280;5279;42.048;24.638;2023-01-15T00:58:47;97986.84;;;6.73;100.00
10464;BME280;5279;42.048;24.638;2023-01-15T01:01:14;97979.91;;;6.72;100.00
10464;BME280;5279;42.048;24.638;2023-01-15T01:03:42;97982.09;;;6.78;100.00
10464;BME280;5279;42.048;24.638;2023-01-15T01:06:13;97992.19;;;6.84;100.00
10464;BME280;5279;42.048;24.638;2023-01-15T01:08:41;97995.28;;;6.78;100.00
10464;BME280;5279;42.048;24.638;2023-01-15T01:11:13;97986.84;;;6.73;100.00
10464;BME280;5279;42.048;24.638;2023-01-15T01:13:41;98010.00;;;6.80;100.00
10464;BME280;5279;42.048;24.638;2023-01-15T01:16:31;97997.06;;;6.77;100.00
10464;BME280;5279;42.048;24.638;2023-01-15T01:19:02;97988.59;;;6.61;100.00
10464;BME280;5279;42.048;24.638;2023-01-15T01:21:30;97979.34;;;6.55;100.00
10464;BME280;5279;42.048;24.638;2023-01-15T01:23:57;97990.69;;;6.69;100.00
10464;BME280;5279;42.048;24.638;2023-01-15T01:26:25;97999.28;;;6.71;100.00
10464;BME280;5279;42.048;24.638;2023-01-15T01:28:53;97997.16;;;6.76;100.00
10464;BME280;5279;42.048;24.638;2023-01-15T01:31:21;97995.28;;;6.78;100.00
10464;BME280;5279;42.048;24.638;2023-01-15T01:33:49;97993.81;;;6.74;100.00
10464;BME280;5279;42.048;24.638;2023-01-15T01:36:19;97986.63;;;6.76;100.00
10464;BME280;5279;42.048;24.638;2023-01-15T01:38:49;97990.81;;;6.78;100.00
10464;BME280;5279;42.048;24.638;2023-01-15T01:41:17;97981.34;;;6.76;100.00
10464;BME280;5279;42.048;24.638;2023-01-15T01:43:59;97986.19;;;6.82;100.00
10464;BME280;5279;42.048;24.638;2023-01-15T01:46:28;97989.34;;;6.87;100.00
10464;BME280;5279;42.048;24.638;2023-01-15T01:48:59;97995.31;;;6.89;100.00
10464;BME280;5279;42.048;24.638;2023-01-15T01:51:34;97993.75;;;6.86;100.00
10464;BME280;5279;42.048;24.638;2023-01-15T01:54:02;97998.81;;;6.89;100.00
10464;BME280;5279;42.048;24.638;2023-01-15T01:56:32;97986.56;;;6.88;100.00
10464;BME280;5279;42.048;24.638;2023-01-15T01:59:03;97997.97;;;6.89;100.00
10464;BME280;5279;42.048;24.638;2023-01-15T02:01:32;97990.16;;;6.87;100.00
10464;BME280;5279;42.048;24.638;2023-01-15T02:04:05;97972.13;;;6.70;100.00
10464;BME280;5279;42.048;24.638;2023-01-15T02:06:33;97978.91;;;6.62;100.00
10464;BME280;5279;42.048;24.638;2023-01-15T02:09:01;97978.28;;;6.58;100.00
10464;BME280;5279;42.048;24.638;2023-01-15T02:11:29;97967.13;;;6.54;100.00
10464;BME280;5279;42.048;24.638;2023-01-15T02:14:04;97984.88;;;6.27;100.00
10464;BME280;5279;42.048;24.638;2023-01-15T02:16:37;97982.75;;;6.32;100.00
10464;BME280;5279;42.048;24.638;2023-01-15T02:19:18;97983.56;;;6.45;100.00
10464;BME280;5279;42.048;24.638;2023-01-15T02:21:51;97976.94;;;6.52;100.00
10464;BME280;5279;42.048;24.638;2023-01-15T02:24:26;97974.78;;;6.57;100.00
10464;BME280;5279;42.048;24.638;2023-01-15T02:27:09;97973.41;;;6.65;100.00
10464;BME280;5279;42.048;24.638;2023-01-15T02:29:52;97962.66;;;6.68;100.00
10464;BME280;5279;42.048;24.638;2023-01-15T02:32:30;97967.47;;;6.74;100.00
10464;BME280;5279;42.048;24.638;2023-01-15T02:35:04;97978.00;;;6.74;100.00
10464;BME280;5279;42.048;24.638;2023-01-15T02:37:36;97960.50;;;6.73;100.00
10464;BME280;5279;42.048;24.638;2023-01-15T02:40:10;97964.25;;;6.81;100.00
10464;BME280;5279;42.048;24.638;2023-01-15T02:42:40;97967.66;;;6.83;100.00
10464;BME280;5279;42.048;24.638;2023-01-15T02:45:12;97961.31;;;6.86;100.00
10464;BME280;5279;42.048;24.638;2023-01-15T02:47:43;97963.00;;;6.87;100.00
10464;BME280;5279;42.048;24.638;2023-01-15T02:50:15;97959.16;;;6.91;100.00
10464;BME280;5279;42.048;24.638;2023-01-15T02:52:47;97955.59;;;6.92;100.00
10464;BME280;5279;42.048;24.638;2023-01-15T02:55:19;97962.53;;;6.93;100.00
10464;BME280;5279;42.048;24.638;2023-01-15T02:57:51;97957.28;;;6.93;100.00
10464;BME280;5279;42.048;24.638;2023-01-15T03:00:22;97964.09;;;6.95;100.00
10464;BME280;5279;42.048;24.638;2023-01-15T03:02:58;97960.41;;;6.98;100.00
10464;BME280;5279;42.048;24.638;2023-01-15T03:05:31;97963.97;;;6.97;100.00
10464;BME280;5279;42.048;24.638;2023-01-15T03:08:02;97961.47;;;6.95;100.00
10464;BME280;5279;42.048;24.638;2023-01-15T03:10:38;97969.25;;;6.97;100.00
10464;BME280;5279;42.048;24.638;2023-01-15T03:13:14;97962.78;;;6.90;100.00
10464;BME280;5279;42.048;24.638;2023-01-15T03:15:47;97962.19;;;6.74;100.00
10464;BME280;5279;42.048;24.638;2023-01-15T03:18:42;97960.06;;;6.79;100.00
10464;BME280;5279;42.048;24.638;2023-01-15T03:21:13;97963.44;;;6.81;100.00
10464;BME280;5279;42.048;24.638;2023-01-15T03:23:48;97978.22;;;6.71;100.00
10464;BME280;5279;42.048;24.638;2023-01-15T03:26:17;97961.19;;;6.64;100.00
10464;BME280;5279;42.048;24.638;2023-01-15T03:28:47;97956.81;;;6.51;100.00
10464;BME280;5279;42.048;24.638;2023-01-15T03:31:15;97965.59;;;6.63;100.00
10464;BME280;5279;42.048;24.638;2023-01-15T03:33:43;97959.06;;;6.69;100.00
10464;BME280;5279;42.048;24.638;2023-01-15T03:36:10;97958.00;;;6.71;100.00
10464;BME280;5279;42.048;24.638;2023-01-15T03:38:39;97955.69;;;6.67;100.00
10464;BME280;5279;42.048;24.638;2023-01-15T03:41:19;97948.78;;;6.66;100.00
10464;BME280;5279;42.048;24.638;2023-01-15T03:43:56;97966.00;;;6.70;100.00
10464;BME280;5279;42.048;24.638;2023-01-15T03:46:41;97957.16;;;6.71;100.00
10464;BME280;5279;42.048;24.638;2023-01-15T03:49:20;97949.97;;;6.73;100.00
10464;BME280;5279;42.048;24.638;2023-01-15T03:51:58;97958.41;;;6.78;100.00
10464;BME280;5279;42.048;24.638;2023-01-15T03:54:34;97944.94;;;6.70;100.00
10464;BME280;5279;42.048;24.638;2023-01-15T03:57:08;97962.47;;;6.82;100.00
10464;BME280;5279;42.048;24.638;2023-01-15T03:59:44;97965.47;;;6.77;100.00
10464;BME280;5279;42.048;24.638;2023-01-15T04:02:17;97963.66;;;6.78;100.00
10464;BME280;5279;42.048;24.638;2023-01-15T04:04:45;97971.88;;;6.73;100.00
10464;BME280;5279;42.048;24.638;2023-01-15T04:07:13;97987.91;;;6.70;100.00
10464;BME280;5279;42.048;24.638;2023-01-15T04:09:41;97970.06;;;6.63;100.00
10464;BME280;5279;42.048;24.638;2023-01-15T04:12:09;97971.00;;;6.62;100.00
10464;BME280;5279;42.048;24.638;2023-01-15T04:14:41;97976.97;;;6.64;100.00
10464;BME280;5279;42.048;24.638;2023-01-15T04:17:08;97979.78;;;6.49;100.00
10464;BME280;5279;42.048;24.638;2023-01-15T04:19:36;97987.81;;;6.35;100.00
10464;BME280;5279;42.048;24.638;2023-01-15T04:22:04;97980.19;;;6.20;100.00
10464;BME280;5279;42.048;24.638;2023-01-15T04:24:32;97978.41;;;5.95;100.00
10464;BME280;5279;42.048;24.638;2023-01-15T04:26:59;97983.91;;;5.92;100.00
10464;BME280;5279;42.048;24.638;2023-01-15T04:29:27;97980.28;;;5.80;100.00
10464;BME280;5279;42.048;24.638;2023-01-15T04:31:57;97990.19;;;5.77;100.00
10464;BME280;5279;42.048;24.638;2023-01-15T04:34:24;97987.13;;;5.83;100.00
10464;BME280;5279;42.048;24.638;2023-01-15T04:36:52;97994.69;;;5.75;100.00
10464;BME280;5279;42.048;24.638;2023-01-15T04:39:20;97991.56;;;5.95;100.00
10464;BME280;5279;42.048;24.638;2023-01-15T04:41:46;97998.69;;;6.05;100.00
10464;BME280;5279;42.048;24.638;2023-01-15T04:44:32;97991.22;;;6.12;100.00
10464;BME280;5279;42.048;24.638;2023-01-15T04:47:01;97998.97;;;6.26;100.00
10464;BME280;5279;42.048;24.638;2023-01-15T04:49:28;97998.53;;;6.32;100.00
10464;BME280;5279;42.048;24.638;2023-01-15T04:51:56;97992.47;;;6.32;100.00
10464;BME280;5279;42.048;24.638;2023-01-15T04:54:24;98000.25;;;6.33;100.00
10464;BME280;5279;42.048;24.638;2023-01-15T04:56:53;97988.09;;;6.07;100.00
10464;BME280;5279;42.048;24.638;2023-01-15T04:59:22;98006.38;;;6.21;100.00
10464;BME280;5279;42.048;24.638;2023-01-15T05:01:50;97997.75;;;6.19;100.00
10464;BME280;5279;42.048;24.638;2023-01-15T05:04:20;98000.47;;;6.30;100.00
10464;BME280;5279;42.048;24.638;2023-01-15T05:06:48;98001.44;;;6.17;100.00
10464;BME280;5279;42.048;24.638;2023-01-15T05:09:15;97999.19;;;6.23;100.00
10464;BME280;5279;42.048;24.638;2023-01-15T05:11:43;98005.00;;;6.28;100.00
10464;BME280;5279;42.048;24.638;2023-01-15T05:14:10;98003.81;;;6.32;100.00
10464;BME280;5279;42.048;24.638;2023-01-15T05:16:37;97994.75;;;6.36;100.00
10464;BME280;5279;42.048;24.638;2023-01-15T05:19:05;98004.00;;;6.42;100.00
10464;BME280;5279;42.048;24.638;2023-01-15T05:21:38;97991.69;;;6.42;100.00
10464;BME280;5279;42.048;24.638;2023-01-15T05:24:07;98006.94;;;6.50;100.00
10464;BME280;5279;42.048;24.638;2023-01-15T05:26:35;98001.16;;;6.45;100.00
10464;BME280;5279;42.048;24.638;2023-01-15T05:29:03;97993.69;;;6.39;100.00
10464;BME280;5279;42.048;24.638;2023-01-15T05:31:31;97998.97;;;6.26;100.00
10464;BME280;5279;42.048;24.638;2023-01-15T05:33:59;98002.16;;;6.31;100.00
10464;BME280;5279;42.048;24.638;2023-01-15T05:36:28;97999.81;;;6.39;100.00
10464;BME280;5279;42.048;24.638;2023-01-15T05:38:58;98010.84;;;6.44;100.00
10464;BME280;5279;42.048;24.638;2023-01-15T05:41:27;98009.59;;;6.50;100.00
10464;BME280;5279;42.048;24.638;2023-01-15T05:44:12;98009.22;;;6.54;100.00
10464;BME280;5279;42.048;24.638;2023-01-15T05:46:41;98000.63;;;6.52;100.00
10464;BME280;5279;42.048;24.638;2023-01-15T05:49:11;98012.63;;;6.56;100.00
10464;BME280;5279;42.048;24.638;2023-01-15T05:51:39;98007.56;;;6.53;100.00
10464;BME280;5279;42.048;24.638;2023-01-15T05:54:11;98002.31;;;6.53;100.00
10464;BME280;5279;42.048;24.638;2023-01-15T05:56:39;98029.88;;;6.60;100.00
10464;BME280;5279;42.048;24.638;2023-01-15T05:59:09;98020.09;;;6.63;100.00
10464;BME280;5279;42.048;24.638;2023-01-15T06:01:37;98020.19;;;6.61;100.00
10464;BME280;5279;42.048;24.638;2023-01-15T06:04:05;98019.97;;;6.64;100.00
10464;BME280;5279;42.048;24.638;2023-01-15T06:06:34;98019.25;;;6.49;100.00
10464;BME280;5279;42.048;24.638;2023-01-15T06:09:02;98012.03;;;6.40;100.00
10464;BME280;5279;42.048;24.638;2023-01-15T06:11:31;98016.03;;;6.33;100.00
10464;BME280;5279;42.048;24.638;2023-01-15T06:13:59;98020.78;;;6.28;100.00
10464;BME280;5279;42.048;24.638;2023-01-15T06:16:27;98021.06;;;6.36;100.00
10464;BME280;5279;42.048;24.638;2023-01-15T06:18:54;98013.31;;;6.35;100.00
10464;BME280;5279;42.048;24.638;2023-01-15T06:21:22;98024.44;;;6.38;100.00
10464;BME280;5279;42.048;24.638;2023-01-15T06:23:52;98013.09;;;6.38;100.00
10464;BME280;5279;42.048;24.638;2023-01-15T06:26:20;98017.72;;;6.34;100.00
10464;BME280;5279;42.048;24.638;2023-01-15T06:28:49;98012.88;;;6.28;100.00
10464;BME280;5279;42.048;24.638;2023-01-15T06:31:18;98019.44;;;6.10;100.00
10464;BME280;5279;42.048;24.638;2023-01-15T06:33:46;98020.50;;;6.08;100.00
10464;BME280;5279;42.048;24.638;2023-01-15T06:36:16;98026.78;;;6.18;100.00
10464;BME280;5279;42.048;24.638;2023-01-15T06:38:46;98032.25;;;6.27;100.00
10464;BME280;5279;42.048;24.638;2023-01-15T06:41:15;98026.56;;;6.33;100.00
10464;BME280;5279;42.048;24.638;2023-01-15T06:44:01;98021.28;;;6.33;100.00
10464;BME280;5279;42.048;24.638;2023-01-15T06:46:46;98026.63;;;6.44;100.00
10464;BME280;5279;42.048;24.638;2023-01-15T06:49:33;98024.09;;;6.55;100.00
10464;BME280;5279;42.048;24.638;2023-01-15T06:52:02;98027.75;;;6.66;100.00
10464;BME280;5279;42.048;24.638;2023-01-15T06:54:29;98011.00;;;6.67;100.00
10464;BME280;5279;42.048;24.638;2023-01-15T06:56:57;98018.13;;;6.77;100.00
10464;BME280;5279;42.048;24.638;2023-01-15T06:59:26;98025.19;;;6.77;100.00
10464;BME280;5279;42.048;24.638;2023-01-15T07:01:53;98030.28;;;6.91;100.00
10464;BME280;5279;42.048;24.638;2023-01-15T07:04:21;98028.41;;;6.93;100.00
10464;BME280;5279;42.048;24.638;2023-01-15T07:06:49;98029.13;;;6.95;100.00
10464;BME280;5279;42.048;24.638;2023-01-15T07:09:16;98032.78;;;7.05;100.00
10464;BME280;5279;42.048;24.638;2023-01-15T07:11:43;98038.75;;;7.07;100.00
10464;BME280;5279;42.048;24.638;2023-01-15T07:14:16;98040.00;;;7.14;100.00
10464;BME280;5279;42.048;24.638;2023-01-15T07:16:44;98038.81;;;7.18;100.00
10464;BME280;5279;42.048;24.638;2023-01-15T07:19:12;98035.22;;;7.19;100.00
10464;BME280;5279;42.048;24.638;2023-01-15T07:21:40;98045.78;;;7.19;100.00
10464;BME280;5279;42.048;24.638;2023-01-15T07:24:09;98057.03;;;7.21;100.00
10464;BME280;5279;42.048;24.638;2023-01-15T07:26:38;98054.53;;;7.20;100.00
10464;BME280;5279;42.048;24.638;2023-01-15T07:29:05;98044.06;;;7.18;100.00
10464;BME280;5279;42.048;24.638;2023-01-15T07:31:32;98044.72;;;7.33;100.00
10464;BME280;5279;42.048;24.638;2023-01-15T07:34:01;98042.72;;;7.36;100.00
10464;BME280;5279;42.048;24.638;2023-01-15T07:36:30;98057.59;;;7.37;100.00
10464;BME280;5279;42.048;24.638;2023-01-15T07:38:57;98044.22;;;7.51;100.00
10464;BME280;5279;42.048;24.638;2023-01-15T07:41:24;98048.06;;;7.58;100.00
10464;BME280;5279;42.048;24.638;2023-01-15T07:44:09;98053.34;;;7.58;100.00
10464;BME280;5279;42.048;24.638;2023-01-15T07:46:54;98051.09;;;7.65;100.00
10464;BME280;5279;42.048;24.638;2023-01-15T07:49:41;98048.47;;;7.76;100.00
10464;BME280;5279;42.048;24.638;2023-01-15T07:52:14;98043.25;;;7.87;100.00
10464;BME280;5279;42.048;24.638;2023-01-15T07:54:42;98047.94;;;7.95;100.00
10464;BME280;5279;42.048;24.638;2023-01-15T07:57:10;98043.25;;;7.98;100.00
10464;BME280;5279;42.048;24.638;2023-01-15T07:59:38;98055.66;;;8.20;100.00
10464;BME280;5279;42.048;24.638;2023-01-15T08:02:05;98055.44;;;8.34;100.00
10464;BME280;5279;42.048;24.638;2023-01-15T08:04:32;98049.19;;;8.46;100.00
10464;BME280;5279;42.048;24.638;2023-01-15T08:07:01;98044.88;;;8.56;100.00
10464;BME280;5279;42.048;24.638;2023-01-15T08:09:29;98046.03;;;8.63;100.00
10464;BME280;5279;42.048;24.638;2023-01-15T08:11:57;98058.31;;;8.42;100.00
10464;BME280;5279;42.048;24.638;2023-01-15T08:14:42;98065.28;;;8.43;100.00
10464;BME280;5279;42.048;24.638;2023-01-15T08:17:27;98051.81;;;8.57;100.00
10464;BME280;5279;42.048;24.638;2023-01-15T08:19:55;98058.78;;;8.58;100.00
10464;BME280;5279;42.048;24.638;2023-01-15T08:22:24;98052.66;;;8.58;100.00
10464;BME280;5279;42.048;24.638;2023-01-15T08:24:51;98057.72;;;8.50;100.00
10464;BME280;5279;42.048;24.638;2023-01-15T08:27:19;98048.09;;;8.49;100.00
10464;BME280;5279;42.048;24.638;2023-01-15T08:29:47;98045.22;;;8.52;100.00
10464;BME280;5279;42.048;24.638;2023-01-15T08:32:14;98035.88;;;8.48;100.00
10464;BME280;5279;42.048;24.638;2023-01-15T08:34:41;98050.41;;;8.53;100.00
10464;BME280;5279;42.048;24.638;2023-01-15T08:37:09;98044.28;;;8.53;100.00
10464;BME280;5279;42.048;24.638;2023-01-15T08:39:38;98050.38;;;8.64;100.00
10464;BME280;5279;42.048;24.638;2023-01-15T08:42:05;98050.59;;;8.72;100.00
10464;BME280;5279;42.048;24.638;2023-01-15T08:44:33;98046.75;;;8.76;100.00
10464;BME280;5279;42.048;24.638;2023-01-15T08:47:00;98048.22;;;8.58;100.00
10464;BME280;5279;42.048;24.638;2023-01-15T08:49:27;98039.09;;;8.62;100.00
10464;BME280;5279;42.048;24.638;2023-01-15T08:51:55;98042.47;;;8.64;100.00
10464;BME280;5279;42.048;24.638;2023-01-15T08:54:23;98041.03;;;8.49;100.00
10464;BME280;5279;42.048;24.638;2023-01-15T08:56:52;98046.81;;;8.32;100.00
10464;BME280;5279;42.048;24.638;2023-01-15T08:59:19;98051.47;;;8.40;100.00
10464;BME280;5279;42.048;24.638;2023-01-15T09:01:47;98029.28;;;8.31;100.00
10464;BME280;5279;42.048;24.638;2023-01-15T09:04:15;98035.75;;;8.38;100.00
10464;BME280;5279;42.048;24.638;2023-01-15T09:06:43;98035.75;;;8.49;100.00
10464;BME280;5279;42.048;24.638;2023-01-15T09:09:11;98033.09;;;8.49;100.00
10464;BME280;5279;42.048;24.638;2023-01-15T09:11:38;98036.69;;;8.48;100.00
10464;BME280;5279;42.048;24.638;2023-01-15T09:14:08;98032.38;;;8.36;100.00
10464;BME280;5279;42.048;24.638;2023-01-15T09:16:36;98023.97;;;8.42;100.00
10464;BME280;5279;42.048;24.638;2023-01-15T09:19:04;98027.59;;;8.52;100.00
10464;BME280;5279;42.048;24.638;2023-01-15T09:21:33;98027.94;;;8.59;100.00
10464;BME280;5279;42.048;24.638;2023-01-15T09:24:04;98021.22;;;8.55;100.00
10464;BME280;5279;42.048;24.638;2023-01-15T09:26:33;98021.94;;;8.46;100.00
10464;BME280;5279;42.048;24.638;2023-01-15T09:29:01;98018.22;;;8.48;100.00
10464;BME280;5279;42.048;24.638;2023-01-15T09:31:31;98012.09;;;8.37;100.00
10464;BME280;5279;42.048;24.638;2023-01-15T09:33:58;98008.63;;;8.36;100.00
10464;BME280;5279;42.048;24.638;2023-01-15T09:36:27;98009.44;;;8.25;100.00
10464;BME280;5279;42.048;24.638;2023-01-15T09:38:56;98013.66;;;8.28;100.00
10464;BME280;5279;42.048;24.638;2023-01-15T09:41:26;97999.13;;;8.22;100.00
10464;BME280;5279;42.048;24.638;2023-01-15T09:44:32;98004.28;;;8.24;100.00
10464;BME280;5279;42.048;24.638;2023-01-15T09:47:08;98002.72;;;8.21;100.00
10464;BME280;5279;42.048;24.638;2023-01-15T09:49:50;98007.16;;;8.21;100.00
10464;BME280;5279;42.048;24.638;2023-01-15T09:52:28;97998.53;;;8.19;100.00
10464;BME280;5279;42.048;24.638;2023-01-15T09:55:04;97994.91;;;7.98;100.00
10464;BME280;5279;42.048;24.638;2023-01-15T09:57:36;98000.19;;;8.09;100.00
10464;BME280;5279;42.048;24.638;2023-01-15T10:00:05;98010.03;;;8.07;100.00
10464;BME280;5279;42.048;24.638;2023-01-15T10:02:38;97999.97;;;8.01;100.00
10464;BME280;5279;42.048;24.638;2023-01-15T10:05:14;97981.84;;;7.96;100.00
10464;BME280;5279;42.048;24.638;2023-01-15T10:07:52;97982.91;;;7.94;100.00
10464;BME280;5279;42.048;24.638;2023-01-15T10:10:23;97980.78;;;7.99;100.00
10464;BME280;5279;42.048;24.638;2023-01-15T10:12:57;97970.09;;;7.89;100.00
10464;BME280;5279;42.048;24.638;2023-01-15T10:15:31;97979.69;;;7.90;100.00
10464;BME280;5279;42.048;24.638;2023-01-15T10:18:05;97964.91;;;7.88;100.00
10464;BME280;5279;42.048;24.638;2023-01-15T10:20:53;97960.38;;;7.90;100.00
10464;BME280;5279;42.048;24.638;2023-01-15T10:23:37;97969.00;;;7.92;100.00
10464;BME280;5279;42.048;24.638;2023-01-15T10:26:12;97957.25;;;7.85;100.00
10464;BME280;5279;42.048;24.638;2023-01-15T10:29:01;97959.16;;;7.83;100.00
10464;BME280;5279;42.048;24.638;2023-01-15T10:31:51;97945.03;;;7.84;100.00
10464;BME280;5279;42.048;24.638;2023-01-15T10:34:51;97944.78;;;7.87;100.00
10464;BME280;5279;42.048;24.638;2023-01-15T10:37:27;97946.44;;;7.65;100.00
10464;BME280;5279;42.048;24.638;2023-01-15T10:40:33;97941.66;;;7.59;100.00
10464;BME280;5279;42.048;24.638;2023-01-15T10:43:10;97944.53;;;7.67;100.00
10464;BME280;5279;42.048;24.638;2023-01-15T10:45:43;97925.94;;;7.69;100.00
10464;BME280;5279;42.048;24.638;2023-01-15T10:48:18;97924.88;;;7.72;100.00
10464;BME280;5279;42.048;24.638;2023-01-15T10:50:52;97926.06;;;7.67;100.00
10464;BME280;5279;42.048;24.638;2023-01-15T10:53:28;97934.44;;;7.72;100.00
10464;BME280;5279;42.048;24.638;2023-01-15T10:56:02;97924.38;;;7.66;100.00
10464;BME280;5279;42.048;24.638;2023-01-15T10:58:36;97928.22;;;7.62;100.00
10464;BME280;5279;42.048;24.638;2023-01-15T11:01:10;97915.03;;;7.62;100.00
10464;BME280;5279;42.048;24.638;2023-01-15T11:03:40;97907.00;;;7.64;100.00
10464;BME280;5279;42.048;24.638;2023-01-15T11:06:13;97904.25;;;7.65;100.00
10464;BME280;5279;42.048;24.638;2023-01-15T11:08:44;97907.38;;;7.59;100.00
10464;BME280;5279;42.048;24.638;2023-01-15T11:11:21;97885.75;;;7.54;100.00
10464;BME280;5279;42.048;24.638;2023-01-15T11:14:04;97892.50;;;7.58;100.00
10464;BME280;5279;42.048;24.638;2023-01-15T11:16:50;97899.69;;;7.67;100.00
10464;BME280;5279;42.048;24.638;2023-01-15T11:19:37;97897.91;;;7.68;100.00
10464;BME280;5279;42.048;24.638;2023-01-15T11:22:09;97894.88;;;7.72;100.00
10464;BME280;5279;42.048;24.638;2023-01-15T11:24:44;97890.31;;;7.63;100.00
10464;BME280;5279;42.048;24.638;2023-01-15T11:27:15;97897.06;;;7.67;100.00
10464;BME280;5279;42.048;24.638;2023-01-15T11:29:43;97885.06;;;7.63;100.00
10464;BME280;5279;42.048;24.638;2023-01-15T11:32:26;97882.91;;;7.46;100.00
10464;BME280;5279;42.048;24.638;2023-01-15T11:34:55;97891.03;;;7.54;100.00
10464;BME280;5279;42.048;24.638;2023-01-15T11:37:25;97881.94;;;7.58;100.00
10464;BME280;5279;42.048;24.638;2023-01-15T11:39:54;97876.44;;;7.61;100.00
10464;BME280;5279;42.048;24.638;2023-01-15T11:42:22;97867.81;;;7.59;100.00
10464;BME280;5279;42.048;24.638;2023-01-15T11:45:16;97876.66;;;7.58;100.00
10464;BME280;5279;42.048;24.638;2023-01-15T11:48:01;97875.81;;;7.58;100.00
10464;BME280;5279;42.048;24.638;2023-01-15T11:50:50;97869.59;;;7.59;100.00
10464;BME280;5279;42.048;24.638;2023-01-15T11:53:20;97856.06;;;7.52;100.00
10464;BME280;5279;42.048;24.638;2023-01-15T11:55:54;97857.75;;;7.53;100.00
10464;BME280;5279;42.048;24.638;2023-01-15T11:58:25;97855.34;;;7.50;100.00
10464;BME280;5279;42.048;24.638;2023-01-15T12:00:54;97859.41;;;7.54;100.00
10464;BME280;5279;42.048;24.638;2023-01-15T12:03:26;97857.38;;;7.58;100.00
10464;BME280;5279;42.048;24.638;2023-01-15T12:05:57;97843.59;;;7.54;100.00
10464;BME280;5279;42.048;24.638;2023-01-15T12:08:38;97838.31;;;7.54;100.00
10464;BME280;5279;42.048;24.638;2023-01-15T12:14:30;97830.91;;;7.59;100.00
10464;BME280;5279;42.048;24.638;2023-01-15T12:17:13;97826.31;;;7.61;100.00
10464;BME280;5279;42.048;24.638;2023-01-15T12:19:46;97826.69;;;7.68;100.00
10464;BME280;5279;42.048;24.638;2023-01-15T12:22:26;97824.66;;;7.72;100.00
10464;BME280;5279;42.048;24.638;2023-01-15T12:25:18;97819.63;;;7.68;100.00
10464;BME280;5279;42.048;24.638;2023-01-15T12:27:53;97820.22;;;7.61;100.00
10464;BME280;5279;42.048;24.638;2023-01-15T12:30:28;97839.28;;;7.64;100.00
10464;BME280;5279;42.048;24.638;2023-01-15T12:33:06;97820.09;;;7.62;100.00
10464;BME280;5279;42.048;24.638;2023-01-15T12:35:43;97819.25;;;7.62;100.00
10464;BME280;5279;42.048;24.638;2023-01-15T12:38:16;97804.03;;;7.54;100.00
10464;BME280;5279;42.048;24.638;2023-01-15T12:40:47;97813.38;;;7.58;100.00
10464;BME280;5279;42.048;24.638;2023-01-15T12:43:20;97807.88;;;7.50;100.00
10464;BME280;5279;42.048;24.638;2023-01-15T12:46:12;97811.09;;;7.54;100.00
10464;BME280;5279;42.048;24.638;2023-01-15T12:48:45;97794.34;;;7.44;100.00
10464;BME280;5279;42.048;24.638;2023-01-15T12:51:21;97809.06;;;7.57;100.00
10464;BME280;5279;42.048;24.638;2023-01-15T12:53:53;97812.69;;;7.56;100.00
10464;BME280;5279;42.048;24.638;2023-01-15T12:56:27;97809.91;;;7.58;100.00
10464;BME280;5279;42.048;24.638;2023-01-15T12:59:03;97798.03;;;7.52;100.00
10464;BME280;5279;42.048;24.638;2023-01-15T13:01:37;97810.38;;;7.63;100.00
10464;BME280;5279;42.048;24.638;2023-01-15T13:04:14;97799.38;;;7.47;100.00
10464;BME280;5279;42.048;24.638;2023-01-15T13:06:46;97802.97;;;7.46;100.00
10464;BME280;5279;42.048;24.638;2023-01-15T13:09:26;97803.09;;;7.44;100.00
10464;BME280;5279;42.048;24.638;2023-01-15T13:11:57;97813.88;;;7.52;100.00
10464;BME280;5279;42.048;24.638;2023-01-15T13:14:24;97808.00;;;7.49;100.00
10464;BME280;5279;42.048;24.638;2023-01-15T13:16:56;97800.19;;;7.36;100.00
10464;BME280;5279;42.048;24.638;2023-01-15T13:19:36;97799.13;;;7.39;100.00
10464;BME280;5279;42.048;24.638;2023-01-15T13:22:13;97794.94;;;7.25;100.00
10464;BME280;5279;42.048;24.638;2023-01-15T13:28:09;97790.88;;;7.32;100.00
10464;BME280;5279;42.048;24.638;2023-01-15T13:30:51;97795.31;;;7.32;100.00
10464;BME280;5279;42.048;24.638;2023-01-15T13:33:28;97795.41;;;7.30;100.00